Terminal Aerodrome Forecast
Issued by NWS

Home | Current Version | Previous Version | Text Only | Print | Product List | Glossary On
Versions: 1 2 3 4 5 6 7 8 9 10 11 12 13
000
FTUS46 KSTO 031127
TAFRDD
TAF
KRDD 031127Z 0312/0412 18010KT P6SM SCT250
      TEMPO 0312/0316 BKN060
     FM040400 VRB05KT P6SM SCT250=

USA.gov is the U.S. government's official web portal to all federal, state and local government web resources and services.